Terminal Aerodrome Forecast
Issued by NWS Shreveport, LA

Home | Current Version | Previous Version | Text Only | Print | Product List | Glossary On
Versions: 1 2 3 4 5 6 7 8 9 10 11 12 13 14 15 16 17
000
FTUS44 KSHV 262352
TAFTXK
TAF
KTXK 262352Z 2700/2724 18012KT P6SM BKN045 BKN250
     FM270500 18007KT P6SM BKN015 OVC025
      TEMPO 2707/2709 BKN007 OVC025
     FM270900 19008KT P6SM BKN005 OVC015
      TEMPO 2713/2715 5SM BR OVC007
     FM271600 19010KT P6SM BKN010 OVC015
     FM271900 19010G17KT P6SM OVC015
     FM272100 19012G18KT P6SM OVC035=

USA.gov is the U.S. government's official web portal to all federal, state and local government web resources and services.